Historique des mesures à Cassis (13260), France
Quotidien Résumé Juin 30, 2018 Unités:  Métrique    US   Métrique/US
« Précédent (Jour)
Suivant (Jour) »
Quotidien Hebdomadaire Mensuel Annuel Période au choix
  Maximum: Minimum: Moyenne:
Température: TemperatureC °C 21.1 °C 25 °C
Point de rosée: DewpointC °C 14.4 °C 16.7 °C
Humidité: Humidity % 45 % 57 %
Vitesse du vent: 0 km/h 0 km/h 3.7 km/h
Rafales: 0 km/h - -
Vent:- - SSE
Pression: PressurehPa hPa 1005.6 hPa -
Précipitations: 0.0 mm    
Historical Graphs
 
 
Mesures pour : Juin 30, 2018
Heure Temperature Point de rosée Pression Vent Vitesse du vent Rafales Humidité Pluie (par heure) Conditions
TemperatureC °C DewpointC °C PressurehPa hPa Calm     Humidity % HourlyPrecipMM mm SoftwareType W/m2
00:10 22.3 °C 16.1 °C 1007.7 hPa Calm   1.8 km/h 68 % 0.0 mm open2300-1.11 W/m2
01:10 21.8 °C 15.8 °C 1007.3 hPa North 3.4 km/h 4.2 km/h 69 % 0.0 mm open2300-1.11 W/m2
02:10 21.9 °C 15.9 °C 1007.6 hPa North 3.4 km/h 3.4 km/h 69 % 0.0 mm open2300-1.11 W/m2
03:10 21.6 °C 15.7 °C 1007.1 hPa NNE 3.4 km/h 4.7 km/h 69 % 0.0 mm open2300-1.11 W/m2
04:10 21.3 °C 15.3 °C 1007.0 hPa Calm   5.1 km/h 69 % 0.0 mm open2300-1.11 W/m2
05:10 21.4 °C 15.2 °C 1007.1 hPa Calm   4.2 km/h 68 % 0.0 mm open2300-1.11 W/m2
06:10 21.1 °C 14.4 °C 1006.8 hPa NW 5.1 km/h 5.1 km/h 66 % 0.0 mm open2300-1.11 W/m2
07:10 21.4 °C 14.5 °C 1007.0 hPa NW 3.4 km/h 8 km/h 65 % 0.0 mm open2300-1.11 W/m2
08:10 24.4 °C 16.4 °C 1007.1 hPa Calm     61 % 0.0 mm open2300-1.11 W/m2
09:10 24.5 °C 16.0 °C 1007.2 hPa Calm   6.9 km/h 59 % 0.0 mm open2300-1.11 W/m2
10:10 26.3 °C 18.2 °C 1007.2 hPa SW 4.7 km/h 4.7 km/h 61 % 0.0 mm open2300-1.11 W/m2
11:10 29.9 °C 19.3 °C 1007.3 hPa SE 9.8 km/h 9.8 km/h 53 % 0.0 mm open2300-1.11 W/m2
12:10 31.1 °C 19.8 °C 1007.4 hPa ESE 8 km/h 11.6 km/h 51 % 0.0 mm open2300-1.11 W/m2
13:10 31.9 °C 18.4 °C 1007.1 hPa SSE 3.4 km/h 5.1 km/h 45 % 0.0 mm open2300-1.11 W/m2
14:10 31.6 °C 19.9 °C 1007.2 hPa SSE 9.8 km/h 14 km/h 50 % 0.0 mm open2300-1.11 W/m2
15:10 31.7 °C 20.9 °C 1007.1 hPa SSE 7.6 km/h 8 km/h 53 % 0.0 mm open2300-1.11 W/m2
16:10 31.0 °C 20.3 °C 1006.6 hPa ESE 4.2 km/h 11.6 km/h 53 % 0.0 mm open2300-1.11 W/m2
17:10 30.3 °C 19.9 °C 1006.5 hPa SE 5.1 km/h 6.4 km/h 54 % 0.0 mm open2300-1.11 W/m2
18:10 29.5 °C 20.1 °C 1006.0 hPa SSE 5.1 km/h 12.2 km/h 57 % 0.0 mm open2300-1.11 W/m2
19:10 28.1 °C 19.0 °C 1005.9 hPa ESE 5.1 km/h 9.3 km/h 58 % 0.0 mm open2300-1.11 W/m2
20:10 27.2 °C 17.9 °C 1005.6 hPa SE 6.9 km/h 6.9 km/h 57 % 0.0 mm open2300-1.11 W/m2
21:10 26.3 °C 17.7 °C 1005.9 hPa Calm     59 % 0.0 mm open2300-1.11 W/m2
22:10 25.1 °C 16.8 °C 1005.9 hPa Calm     60 % 0.0 mm open2300-1.11 W/m2
23:10 24.2 °C 14.6 °C 1006.4 hPa NW 4.2 km/h 4.2 km/h 55 % 0.0 mm open2300-1.11 W/m2
Observations météo à CASSIS
WU-History script by Weather Underground - 1 mb